createdAt,value
2023-04-08T00:00:04.831Z,100490.44
2023-04-08T00:00:41.025Z,100493.16
2023-04-08T00:01:16.737Z,100495.06
2023-04-08T00:01:53.048Z,100501.06
2023-04-08T00:02:28.955Z,100496.44
2023-04-08T00:03:04.728Z,100499.16
2023-04-08T00:03:40.644Z,100499.97
2023-04-08T00:04:16.861Z,100507.06
2023-04-08T00:04:53.349Z,100496.97
2023-04-08T00:05:28.939Z,100499.69
2023-04-08T00:06:04.396Z,100499.69
2023-04-08T00:06:39.985Z,100495.88
2023-04-08T00:07:16.337Z,100496.16
2023-04-08T00:07:52.163Z,100495.34
2023-04-08T00:08:28.282Z,100504.63
2023-04-08T00:09:04.415Z,100503.53
2023-04-08T00:09:40.507Z,100500.25
2023-04-08T00:10:16.558Z,100499.69
2023-04-08T00:10:52.486Z,100501.06
2023-04-08T00:11:28.172Z,100503.78
2023-04-08T00:12:03.730Z,100497.53
2023-04-08T00:12:40.549Z,100498.63
2023-04-08T00:13:16.142Z,100500.53
2023-04-08T00:13:52.004Z,100503.53
2023-04-08T00:14:28.503Z,100504.34
2023-04-08T00:15:05.075Z,100505.16
2023-04-08T00:15:41.114Z,100502.97
2023-04-08T00:16:17.034Z,100503.53
2023-04-08T00:16:52.689Z,100498.63
2023-04-08T00:17:28.680Z,100499.16
2023-04-08T00:18:04.326Z,100502.44
2023-04-08T00:18:40.443Z,100505.44
2023-04-08T00:19:16.532Z,100500.78
2023-04-08T00:19:52.640Z,100504.63
2023-04-08T00:20:28.469Z,100502.69
2023-04-08T00:21:03.839Z,100499.69
2023-04-08T00:21:39.017Z,100496.97
2023-04-08T00:22:15.478Z,100504.88
2023-04-08T00:22:51.389Z,100493.16
2023-04-08T00:23:27.313Z,100506.50
2023-04-08T00:24:03.688Z,100498.88
2023-04-08T00:24:39.834Z,100498.06
2023-04-08T00:25:15.808Z,100498.06
2023-04-08T00:25:51.332Z,100503.53
2023-04-08T00:26:26.529Z,100505.97
2023-04-08T00:27:02.841Z,100496.69
2023-04-08T00:27:38.523Z,100495.63
2023-04-08T00:28:14.747Z,100503.25
2023-04-08T00:28:51.068Z,100502.69
2023-04-08T00:29:26.580Z,100511.69
2023-04-08T00:30:03.409Z,100502.44
2023-04-08T00:30:39.279Z,100508.16
2023-04-08T00:31:14.629Z,100501.88
2023-04-08T00:31:49.924Z,100509.78
2023-04-08T00:32:26.411Z,100506.25
2023-04-08T00:33:02.464Z,100508.44
2023-04-08T00:33:38.403Z,100510.34
2023-04-08T00:34:14.394Z,100510.88
2023-04-08T00:34:49.854Z,100501.88
2023-04-08T00:35:26.184Z,100510.06
2023-04-08T00:36:02.587Z,100513.06
2023-04-08T00:36:38.526Z,100513.06
2023-04-08T00:37:13.647Z,100515.25
2023-04-08T00:37:49.567Z,100515.25
2023-04-08T00:38:25.893Z,100510.59
2023-04-08T00:39:02.004Z,100514.97
2023-04-08T00:39:37.932Z,100512.50
2023-04-08T00:40:13.616Z,100510.88
2023-04-08T00:40:49.275Z,100514.44
2023-04-08T00:41:24.626Z,100516.59
2023-04-08T00:42:00.108Z,100515.25
2023-04-08T00:42:35.660Z,100513.06
2023-04-08T00:43:11.953Z,100511.44
2023-04-08T00:43:47.800Z,100519.06
2023-04-08T00:44:24.623Z,100516.88
2023-04-08T00:45:00.743Z,100514.69
2023-04-08T00:45:39.127Z,100519.34
2023-04-08T00:46:14.782Z,100517.44
2023-04-08T00:46:49.996Z,100518.78
2023-04-08T00:47:26.389Z,100512.78
2023-04-08T00:48:02.516Z,100517.69
2023-04-08T00:48:38.262Z,100522.06
2023-04-08T00:49:14.248Z,100515.50
2023-04-08T00:49:50.148Z,100521.78
2023-04-08T00:50:26.332Z,100516.34
2023-04-08T00:51:02.150Z,100518.78
2023-04-08T00:51:37.511Z,100523.41
2023-04-08T00:52:13.250Z,100521.25
2023-04-08T00:52:49.278Z,100524.50
2023-04-08T00:53:25.745Z,100525.06
2023-04-08T00:54:00.768Z,100523.97
2023-04-08T00:54:36.540Z,100531.31
2023-04-08T00:55:12.427Z,100533.50
2023-04-08T00:55:48.033Z,100526.69
2023-04-08T00:56:24.603Z,100522.06
2023-04-08T00:57:00.252Z,100516.59
2023-04-08T00:57:35.709Z,100520.16
2023-04-08T00:58:11.557Z,100520.41
2023-04-08T00:58:47.607Z,100524.78
2023-04-08T00:59:23.577Z,100522.88
2023-04-08T00:59:58.685Z,100525.31
2023-04-08T01:00:35.132Z,100520.16
2023-04-08T01:01:11.288Z,100516.59
2023-04-08T01:01:47.046Z,100526.41
2023-04-08T01:02:22.829Z,100524.78
2023-04-08T01:02:58.329Z,100521.50
2023-04-08T01:03:34.391Z,100528.06
2023-04-08T01:04:10.521Z,100520.97
2023-04-08T01:04:46.636Z,100522.31
2023-04-08T01:05:22.515Z,100526.69
2023-04-08T01:05:58.765Z,100524.50
2023-04-08T01:06:35.084Z,100522.06
2023-04-08T01:07:10.901Z,100516.59
2023-04-08T01:07:46.593Z,100525.88
2023-04-08T01:08:22.227Z,100529.13
2023-04-08T01:08:58.318Z,100528.59
2023-04-08T01:09:34.152Z,100529.69
2023-04-08T01:10:09.731Z,100525.88
2023-04-08T01:10:45.874Z,100523.41
2023-04-08T01:11:20.986Z,100526.16
2023-04-08T01:11:56.263Z,100525.06
2023-04-08T01:12:32.489Z,100522.31
2023-04-08T01:13:08.351Z,100532.13
2023-04-08T01:13:43.869Z,100525.88
2023-04-08T01:14:20.295Z,100524.25
2023-04-08T01:14:56.463Z,100527.50
2023-04-08T01:15:32.479Z,100525.06
2023-04-08T01:16:08.019Z,100530.50
2023-04-08T01:16:43.846Z,100528.06
2023-04-08T01:17:19.240Z,100524.78
2023-04-08T01:17:55.299Z,100526.97
2023-04-08T01:18:30.854Z,100524.50
2023-04-08T01:19:06.944Z,100518.25
2023-04-08T01:19:43.203Z,100521.25
2023-04-08T01:20:19.169Z,100520.97
2023-04-08T01:20:54.797Z,100526.69
2023-04-08T01:21:30.685Z,100525.06
2023-04-08T01:22:06.093Z,100524.78
2023-04-08T01:22:42.252Z,100526.16
2023-04-08T01:23:18.214Z,100523.16
2023-04-08T01:23:54.217Z,100525.59
2023-04-08T01:24:29.819Z,100525.06
2023-04-08T01:25:05.825Z,100525.06
2023-04-08T01:25:41.723Z,100520.69
2023-04-08T01:26:17.263Z,100526.97
2023-04-08T01:26:53.523Z,100524.25
2023-04-08T01:27:28.976Z,100525.06
2023-04-08T01:28:05.575Z,100522.06
2023-04-08T01:28:41.194Z,100523.16
2023-04-08T01:29:17.471Z,100520.97
2023-04-08T01:29:52.904Z,100520.16
2023-04-08T01:30:29.109Z,100521.25
2023-04-08T01:31:04.891Z,100522.88
2023-04-08T01:31:40.549Z,100524.78
2023-04-08T01:32:16.570Z,100520.16
2023-04-08T01:32:52.241Z,100522.06
2023-04-08T01:33:28.045Z,100516.59
2023-04-08T01:34:03.985Z,100526.41
2023-04-08T01:34:39.374Z,100526.41
2023-04-08T01:35:15.486Z,100516.59
2023-04-08T01:35:51.256Z,100518.25
2023-04-08T01:36:27.431Z,100520.97
2023-04-08T01:37:03.212Z,100521.78
2023-04-08T01:37:38.734Z,100522.59
2023-04-08T01:38:14.645Z,100522.88
2023-04-08T01:38:51.080Z,100519.31
2023-04-08T01:39:26.720Z,100522.06
2023-04-08T01:40:02.914Z,100514.69
2023-04-08T01:40:38.766Z,100519.59
2023-04-08T01:41:14.613Z,100515.25
2023-04-08T01:41:49.864Z,100520.41
2023-04-08T01:42:25.333Z,100522.59
2023-04-08T01:43:01.507Z,100520.16
2023-04-08T01:43:37.356Z,100524.50
2023-04-08T01:44:13.109Z,100520.97
2023-04-08T01:44:49.006Z,100525.88
2023-04-08T01:45:24.903Z,100524.50
2023-04-08T01:46:00.765Z,100520.16
2023-04-08T01:46:36.612Z,100522.31
2023-04-08T01:47:12.483Z,100520.41
2023-04-08T01:47:47.537Z,100523.69
2023-04-08T01:48:23.730Z,100518.25
2023-04-08T01:48:59.677Z,100521.50
2023-04-08T01:49:35.642Z,100524.50
2023-04-08T01:50:11.166Z,100522.06
2023-04-08T01:50:47.375Z,100525.59
2023-04-08T01:51:23.261Z,100525.31
2023-04-08T01:51:59.187Z,100523.69
2023-04-08T01:52:34.729Z,100523.69
2023-04-08T01:53:10.062Z,100526.41
2023-04-08T01:53:46.498Z,100523.69
2023-04-08T01:54:22.019Z,100528.31
2023-04-08T01:54:58.010Z,100525.31
2023-04-08T01:55:34.353Z,100529.13
2023-04-08T01:56:10.250Z,100522.88
2023-04-08T01:56:46.155Z,100520.97
2023-04-08T01:57:22.100Z,100528.31
2023-04-08T01:57:58.440Z,100525.88
2023-04-08T01:58:34.194Z,100521.50
2023-04-08T01:59:10.051Z,100529.97
2023-04-08T01:59:46.200Z,100527.22
2023-04-08T02:00:22.401Z,100529.41
2023-04-08T02:00:58.353Z,100528.59
2023-04-08T02:01:34.092Z,100529.97
2023-04-08T02:02:10.118Z,100523.69
2023-04-08T02:02:46.022Z,100525.06
2023-04-08T02:03:21.926Z,100523.97
2023-04-08T02:03:57.300Z,100520.97
2023-04-08T02:04:32.898Z,100529.13
2023-04-08T02:05:09.022Z,100532.97
2023-04-08T02:05:44.849Z,100530.78
2023-04-08T02:06:20.973Z,100529.13
2023-04-08T02:06:56.646Z,100530.78
2023-04-08T02:07:31.940Z,100534.31
2023-04-08T02:08:08.200Z,100525.31
2023-04-08T02:08:44.457Z,100526.97
2023-04-08T02:09:20.346Z,100530.78
2023-04-08T02:09:56.305Z,100530.78
2023-04-08T02:10:32.103Z,100530.78
2023-04-08T02:11:07.925Z,100532.13
2023-04-08T02:11:44.108Z,100531.06
2023-04-08T02:12:19.524Z,100529.97
2023-04-08T02:12:55.142Z,100535.13
2023-04-08T02:13:30.967Z,100535.41
2023-04-08T02:14:07.230Z,100534.59
2023-04-08T02:14:42.962Z,100532.97
2023-04-08T02:15:19.415Z,100530.22
2023-04-08T02:15:55.772Z,100532.41
2023-04-08T02:16:31.890Z,100528.88
2023-04-08T02:17:08.123Z,100529.97
2023-04-08T02:17:43.866Z,100531.06
2023-04-08T02:18:18.944Z,100534.31
2023-04-08T02:18:55.280Z,100535.41
2023-04-08T02:19:31.400Z,100533.22
2023-04-08T02:20:07.372Z,100531.59
2023-04-08T02:20:42.851Z,100529.69
2023-04-08T02:21:18.764Z,100537.88
2023-04-08T02:21:54.720Z,100537.88
2023-04-08T02:22:30.561Z,100540.59
2023-04-08T02:23:06.401Z,100534.31
2023-04-08T02:23:41.672Z,100532.97
2023-04-08T02:24:17.729Z,100535.41
2023-04-08T02:24:53.763Z,100543.03
2023-04-08T02:25:29.998Z,100543.31
2023-04-08T02:26:05.588Z,100540.88
2023-04-08T02:26:41.261Z,100543.88
2023-04-08T02:27:17.378Z,100539.50
2023-04-08T02:27:53.275Z,100543.88
2023-04-08T02:28:28.696Z,100540.31
2023-04-08T02:29:03.845Z,100541.41
2023-04-08T02:29:40.157Z,100543.03
2023-04-08T02:30:16.006Z,100541.69
2023-04-08T02:30:51.897Z,100548.22
2023-04-08T02:31:27.502Z,100544.94
2023-04-08T02:32:03.677Z,100538.97
2023-04-08T02:32:39.732Z,100538.97
2023-04-08T02:33:15.152Z,100538.13
2023-04-08T02:33:50.968Z,100540.31
2023-04-08T02:34:26.386Z,100537.88
2023-04-08T02:35:02.057Z,100540.03
2023-04-08T02:35:38.515Z,100538.41
2023-04-08T02:36:14.261Z,100532.97
2023-04-08T02:36:50.227Z,100535.97
2023-04-08T02:37:26.175Z,100536.22
2023-04-08T02:38:01.985Z,100536.78
2023-04-08T02:38:38.181Z,100534.03
2023-04-08T02:39:13.855Z,100528.59
2023-04-08T02:39:49.053Z,100535.41
2023-04-08T02:40:25.233Z,100535.13
2023-04-08T02:41:01.384Z,100533.50
2023-04-08T02:41:37.463Z,100526.13
2023-04-08T02:42:13.252Z,100530.22
2023-04-08T02:42:49.016Z,100526.13
2023-04-08T02:43:25.353Z,100536.50
2023-04-08T02:44:01.489Z,100530.50
2023-04-08T02:44:37.101Z,100532.97
2023-04-08T02:45:12.660Z,100534.59
2023-04-08T02:45:48.827Z,100534.03
2023-04-08T02:46:24.438Z,100535.13
2023-04-08T02:47:00.688Z,100535.97
2023-04-08T02:47:36.755Z,100531.88
2023-04-08T02:48:12.838Z,100531.59
2023-04-08T02:48:49.032Z,100535.13
2023-04-08T02:49:25.190Z,100536.22
2023-04-08T02:50:00.960Z,100538.69
2023-04-08T02:50:36.139Z,100536.22
2023-04-08T02:51:12.025Z,100537.03
2023-04-08T02:51:48.472Z,100535.13
2023-04-08T02:52:24.092Z,100540.88
2023-04-08T02:53:00.021Z,100542.50
2023-04-08T02:53:35.506Z,100536.22
2023-04-08T02:54:11.934Z,100543.84
2023-04-08T02:54:48.381Z,100542.78
2023-04-08T02:55:24.109Z,100541.41
2023-04-08T02:55:59.609Z,100545.50
2023-04-08T02:56:34.883Z,100549.31
2023-04-08T02:57:10.564Z,100550.69
2023-04-08T02:57:46.551Z,100547.13
2023-04-08T02:58:22.831Z,100544.94
2023-04-08T02:58:58.181Z,100544.94
2023-04-08T02:59:34.172Z,100549.59
2023-04-08T03:00:10.648Z,100544.13
2023-04-08T03:00:46.140Z,100541.69
2023-04-08T03:01:21.665Z,100543.31
2023-04-08T03:01:57.392Z,100547.94
2023-04-08T03:02:33.261Z,100544.13
2023-04-08T03:03:09.255Z,100533.78
2023-04-08T03:03:44.946Z,100542.22
2023-04-08T03:04:20.853Z,100544.13
2023-04-08T03:04:56.547Z,100546.03
2023-04-08T03:05:32.060Z,100543.31
2023-04-08T03:06:08.094Z,100551.50
2023-04-08T03:06:44.026Z,100543.31
2023-04-08T03:07:19.069Z,100548.78
2023-04-08T03:07:55.456Z,100549.59
2023-04-08T03:08:31.192Z,100547.94
2023-04-08T03:09:06.784Z,100549.03
2023-04-08T03:09:43.519Z,100550.13
2023-04-08T03:10:19.468Z,100548.78
2023-04-08T03:10:55.186Z,100549.59
2023-04-08T03:11:31.075Z,100551.50
2023-04-08T03:12:06.390Z,100550.41
2023-04-08T03:12:42.130Z,100550.69
2023-04-08T03:13:18.007Z,100547.94
2023-04-08T03:13:53.899Z,100548.78
2023-04-08T03:14:29.641Z,100551.50
2023-04-08T03:15:05.658Z,100553.69
2023-04-08T03:15:41.379Z,100556.41
2023-04-08T03:16:17.146Z,100556.41
2023-04-08T03:16:52.587Z,100553.69
2023-04-08T03:17:28.105Z,100550.94
2023-04-08T03:18:03.909Z,100550.94
2023-04-08T03:18:40.209Z,100553.13
2023-04-08T03:19:16.164Z,100554.50
2023-04-08T03:19:52.131Z,100556.41
2023-04-08T03:20:27.820Z,100552.59
2023-04-08T03:21:03.903Z,100556.41
2023-04-08T03:21:40.017Z,100549.03
2023-04-08T03:22:15.660Z,100555.03
2023-04-08T03:22:51.199Z,100548.78
2023-04-08T03:23:26.784Z,100550.41
2023-04-08T03:24:02.414Z,100552.59
2023-04-08T03:24:38.774Z,100558.84
2023-04-08T03:25:14.327Z,100559.94
2023-04-08T03:25:49.997Z,100554.50
2023-04-08T03:26:26.301Z,100553.41
2023-04-08T03:27:02.143Z,100552.59
2023-04-08T03:27:37.625Z,100551.78
2023-04-08T03:28:13.183Z,100557.22
2023-04-08T03:28:49.301Z,100556.41
2023-04-08T03:29:25.185Z,100554.75
2023-04-08T03:30:01.293Z,100558.03
2023-04-08T03:30:38.497Z,100555.59
2023-04-08T03:31:14.917Z,100564.84
2023-04-08T03:31:50.195Z,100557.50
2023-04-08T03:32:25.955Z,100557.22
2023-04-08T03:33:02.056Z,100555.31
2023-04-08T03:33:38.095Z,100564.59
2023-04-08T03:34:14.396Z,100561.59
2023-04-08T03:34:49.837Z,100565.13
2023-04-08T03:35:25.839Z,100558.31
2023-04-08T03:36:01.618Z,100560.75
2023-04-08T03:36:37.347Z,100565.94
2023-04-08T03:37:12.932Z,100559.13
2023-04-08T03:37:49.006Z,100564.84
2023-04-08T03:38:24.797Z,100565.66
2023-04-08T03:39:01.027Z,100565.13
2023-04-08T03:39:36.578Z,100558.03
2023-04-08T03:40:13.053Z,100564.31
2023-04-08T03:40:49.096Z,100560.50
2023-04-08T03:41:24.931Z,100565.13
2023-04-08T03:42:01.030Z,100562.94
2023-04-08T03:42:36.702Z,100556.41
2023-04-08T03:43:12.752Z,100552.03
2023-04-08T03:43:48.327Z,100560.50
2023-04-08T03:44:24.485Z,100555.84
2023-04-08T03:45:00.547Z,100553.69
2023-04-08T03:45:38.746Z,100558.59
2023-04-08T03:46:14.658Z,100555.84
2023-04-08T03:46:50.904Z,100548.78
2023-04-08T03:47:26.455Z,100553.94
2023-04-08T03:48:01.694Z,100552.31
2023-04-08T03:48:37.434Z,100553.94
2023-04-08T03:49:13.823Z,100552.84
2023-04-08T03:49:49.986Z,100550.94
2023-04-08T03:50:25.971Z,100557.22
2023-04-08T03:51:01.465Z,100558.03
2023-04-08T03:51:37.043Z,100562.13
2023-04-08T03:52:13.153Z,100556.69
2023-04-08T03:52:48.611Z,100555.59
2023-04-08T03:53:24.668Z,100555.84
2023-04-08T03:54:00.731Z,100566.50
2023-04-08T03:54:36.577Z,100553.13
2023-04-08T03:55:12.697Z,100561.59
2023-04-08T03:55:48.546Z,100563.22
2023-04-08T03:56:24.658Z,100554.75
2023-04-08T03:57:00.351Z,100558.59
2023-04-08T03:57:35.699Z,100560.22
2023-04-08T03:58:12.060Z,100559.94
2023-04-08T03:58:48.478Z,100558.59
2023-04-08T03:59:24.628Z,100557.22
2023-04-08T04:00:00.241Z,100563.75
2023-04-08T04:00:42.268Z,100559.13
2023-04-08T04:01:18.363Z,100553.69
2023-04-08T04:01:53.764Z,100560.22
2023-04-08T04:02:28.762Z,100563.22
2023-04-08T04:03:04.617Z,100562.66
2023-04-08T04:03:40.554Z,100560.75
2023-04-08T04:04:16.893Z,100560.22
2023-04-08T04:04:53.186Z,100556.13
2023-04-08T04:05:28.658Z,100565.41
2023-04-08T04:06:04.646Z,100556.69
2023-04-08T04:06:40.986Z,100554.50
2023-04-08T04:07:16.272Z,100565.41
2023-04-08T04:07:51.652Z,100563.22
2023-04-08T04:08:27.160Z,100562.41
2023-04-08T04:09:03.512Z,100562.94
2023-04-08T04:09:39.074Z,100559.41
2023-04-08T04:10:15.332Z,100565.41
2023-04-08T04:10:51.326Z,100560.50
2023-04-08T04:11:27.551Z,100567.56
2023-04-08T04:12:03.063Z,100567.31
2023-04-08T04:12:38.956Z,100557.22
2023-04-08T04:13:14.288Z,100558.31
2023-04-08T04:13:49.910Z,100560.50
2023-04-08T04:14:26.167Z,100559.41
2023-04-08T04:15:02.733Z,100554.75
2023-04-08T04:15:38.960Z,100555.59
2023-04-08T04:16:14.695Z,100556.69
2023-04-08T04:16:50.673Z,100561.59
2023-04-08T04:17:26.791Z,100559.13
2023-04-08T04:18:02.564Z,100557.50
2023-04-08T04:18:37.612Z,100556.41
2023-04-08T04:19:13.945Z,100554.22
2023-04-08T04:19:49.772Z,100551.78
2023-04-08T04:20:25.533Z,100561.03
2023-04-08T04:21:01.757Z,100557.75
2023-04-08T04:21:37.432Z,100559.41
2023-04-08T04:22:13.655Z,100553.69
2023-04-08T04:22:49.845Z,100556.41
2023-04-08T04:23:25.791Z,100557.22
2023-04-08T04:24:01.157Z,100562.94
2023-04-08T04:24:36.943Z,100562.41
2023-04-08T04:25:12.636Z,100564.03
2023-04-08T04:25:49.260Z,100563.22
2023-04-08T04:26:25.575Z,100562.94
2023-04-08T04:27:01.469Z,100567.56
2023-04-08T04:27:37.032Z,100564.03
2023-04-08T04:28:12.505Z,100562.41
2023-04-08T04:28:48.636Z,100564.84
2023-04-08T04:29:24.549Z,100565.94
2023-04-08T04:30:00.593Z,100561.59
2023-04-08T04:30:36.745Z,100567.84
2023-04-08T04:31:12.717Z,100570.56
2023-04-08T04:31:48.707Z,100565.13
2023-04-08T04:32:24.096Z,100565.13
2023-04-08T04:32:59.759Z,100566.22
2023-04-08T04:33:35.742Z,100565.94
2023-04-08T04:34:11.071Z,100567.31
2023-04-08T04:34:47.400Z,100573.84
2023-04-08T04:35:23.404Z,100572.47
2023-04-08T04:35:58.976Z,100567.31
2023-04-08T04:36:34.671Z,100580.66
2023-04-08T04:37:10.555Z,100572.75
2023-04-08T04:37:46.204Z,100573.31
2023-04-08T04:38:21.890Z,100561.84
2023-04-08T04:38:58.571Z,100575.47
2023-04-08T04:39:34.360Z,100572.22
2023-04-08T04:40:10.359Z,100580.66
2023-04-08T04:40:46.363Z,100579.84
2023-04-08T04:41:22.310Z,100579.84
2023-04-08T04:41:58.190Z,100572.22
2023-04-08T04:42:34.263Z,100581.75
2023-04-08T04:43:09.482Z,100579.84
2023-04-08T04:43:45.870Z,100579.31
2023-04-08T04:44:21.692Z,100571.94
2023-04-08T04:44:58.328Z,100577.41
2023-04-08T04:45:34.548Z,100575.75
2023-04-08T04:46:10.822Z,100577.41
2023-04-08T04:46:46.881Z,100581.75
2023-04-08T04:47:22.762Z,100581.22
2023-04-08T04:47:57.902Z,100583.66
2023-04-08T04:48:33.431Z,100578.22
2023-04-08T04:49:09.414Z,100577.13
2023-04-08T04:49:45.389Z,100573.31
2023-04-08T04:50:21.018Z,100583.13
2023-04-08T04:50:57.576Z,100581.75
2023-04-08T04:51:33.791Z,100580.41
2023-04-08T04:52:09.306Z,100579.84
2023-04-08T04:52:45.320Z,100577.94
2023-04-08T04:53:21.078Z,100578.22
2023-04-08T04:53:56.917Z,100576.56
2023-04-08T04:54:32.444Z,100579.03
2023-04-08T04:55:08.542Z,100585.31
2023-04-08T04:55:44.122Z,100580.41
2023-04-08T04:56:20.332Z,100583.13
2023-04-08T04:56:56.095Z,100576.03
2023-04-08T04:57:32.063Z,100580.38
2023-04-08T04:58:08.201Z,100585.56
2023-04-08T04:58:43.910Z,100586.38
2023-04-08T04:59:19.799Z,100585.31
2023-04-08T04:59:56.338Z,100582.03
2023-04-08T05:00:32.879Z,100578.75
2023-04-08T05:01:08.751Z,100585.84
2023-04-08T05:01:44.983Z,100580.38
2023-04-08T05:02:20.820Z,100583.13
2023-04-08T05:02:57.145Z,100587.75
2023-04-08T05:03:32.914Z,100581.47
2023-04-08T05:04:08.504Z,100581.75
2023-04-08T05:04:43.901Z,100588.56
2023-04-08T05:05:19.891Z,100582.03
2023-04-08T05:05:56.171Z,100586.38
2023-04-08T05:06:31.928Z,100583.38
2023-04-08T05:07:08.428Z,100586.94
2023-04-08T05:07:44.138Z,100587.22
2023-04-08T05:08:20.610Z,100580.13
2023-04-08T05:08:56.694Z,100588.03
2023-04-08T05:09:31.994Z,100589.66
2023-04-08T05:10:07.494Z,100588.56
2023-04-08T05:10:43.622Z,100584.75
2023-04-08T05:11:20.350Z,100588.84
2023-04-08T05:11:56.331Z,100592.13
2023-04-08T05:12:31.867Z,100593.19
2023-04-08T05:13:08.134Z,100594.03
2023-04-08T05:13:44.240Z,100591.84
2023-04-08T05:14:20.678Z,100595.38
2023-04-08T05:14:56.325Z,100595.13
2023-04-08T05:15:31.715Z,100597.03
2023-04-08T05:16:07.762Z,100595.38
2023-04-08T05:16:43.695Z,100598.09
2023-04-08T05:17:19.881Z,100599.19
2023-04-08T05:17:55.407Z,100599.19
2023-04-08T05:18:31.462Z,100607.09
2023-04-08T05:19:07.529Z,100603.28
2023-04-08T05:19:42.918Z,100604.38
2023-04-08T05:20:18.762Z,100607.09
2023-04-08T05:20:54.449Z,100604.09
2023-04-08T05:21:30.367Z,100605.75
2023-04-08T05:22:06.388Z,100604.09
2023-04-08T05:22:41.682Z,100603.28
2023-04-08T05:23:17.962Z,100605.47
2023-04-08T05:23:53.568Z,100610.66
2023-04-08T05:24:29.258Z,100608.75
2023-04-08T05:25:05.859Z,100606.00
2023-04-08T05:25:41.493Z,100611.75
2023-04-08T05:26:17.865Z,100605.47
2023-04-08T05:26:54.620Z,100607.09
2023-04-08T05:27:30.134Z,100600.03
2023-04-08T05:28:06.227Z,100608.47
2023-04-08T05:28:41.944Z,100609.28
2023-04-08T05:29:18.025Z,100606.84
2023-04-08T05:29:53.686Z,100612.00
2023-04-08T05:30:30.063Z,100606.00
2023-04-08T05:31:06.043Z,100610.09
2023-04-08T05:31:41.417Z,100612.81
2023-04-08T05:32:17.298Z,100610.91
2023-04-08T05:32:53.010Z,100609.81
2023-04-08T05:33:29.415Z,100608.75
2023-04-08T05:34:05.352Z,100609.56
2023-04-08T05:34:41.361Z,100610.91
2023-04-08T05:35:17.189Z,100606.84
2023-04-08T05:35:52.927Z,100612.00
2023-04-08T05:36:28.799Z,100616.38
2023-04-08T05:37:04.512Z,100612.84
2023-04-08T05:37:40.603Z,100610.09
2023-04-08T05:38:16.168Z,100612.84
2023-04-08T05:38:52.787Z,100611.75
2023-04-08T05:39:28.751Z,100612.56
2023-04-08T05:40:04.564Z,100617.47
2023-04-08T05:40:40.875Z,100612.00
2023-04-08T05:41:16.679Z,100608.19
2023-04-08T05:41:52.698Z,100613.38
2023-04-08T05:42:27.953Z,100608.19
2023-04-08T05:43:03.837Z,100611.19
2023-04-08T05:43:40.167Z,100612.84
2023-04-08T05:44:15.654Z,100612.81
2023-04-08T05:44:51.981Z,100613.09
2023-04-08T05:45:28.115Z,100607.09
2023-04-08T05:46:04.440Z,100607.94
2023-04-08T05:46:39.848Z,100609.84
2023-04-08T05:47:15.737Z,100611.75
2023-04-08T05:47:51.658Z,100612.84
2023-04-08T05:48:27.512Z,100612.00
2023-04-08T05:49:03.361Z,100609.28
2023-04-08T05:49:39.114Z,100612.84
2023-04-08T05:50:15.508Z,100608.47
2023-04-08T05:50:51.731Z,100615.81
2023-04-08T05:51:28.260Z,100619.09
2023-04-08T05:52:04.397Z,100616.38
2023-04-08T05:52:40.096Z,100612.84
2023-04-08T05:53:15.646Z,100616.38
2023-04-08T05:53:51.887Z,100616.91
2023-04-08T05:54:27.732Z,100622.66
2023-04-08T05:55:04.168Z,100628.91
2023-04-08T05:55:40.008Z,100622.09
2023-04-08T05:56:15.960Z,100626.72
2023-04-08T05:56:51.978Z,100630.56
2023-04-08T05:57:28.160Z,100631.91
2023-04-08T05:58:03.467Z,100628.91
2023-04-08T05:58:39.169Z,100635.47
2023-04-08T05:59:14.928Z,100628.91
2023-04-08T05:59:51.357Z,100633.28
2023-04-08T06:00:26.974Z,100630.56
2023-04-08T06:01:03.081Z,100630.56
2023-04-08T06:01:39.063Z,100633.00
2023-04-08T06:02:14.946Z,100631.09
2023-04-08T06:02:51.047Z,100631.91
2023-04-08T06:03:26.332Z,100628.91
2023-04-08T06:04:02.467Z,100634.09
2023-04-08T06:04:37.965Z,100637.09
2023-04-08T06:05:14.281Z,100637.38
2023-04-08T06:05:50.388Z,100635.47
2023-04-08T06:06:26.071Z,100639.00
2023-04-08T06:07:02.642Z,100639.81
2023-04-08T06:07:38.513Z,100638.72
2023-04-08T06:08:13.841Z,100634.38
2023-04-08T06:08:49.936Z,100636.53
2023-04-08T06:09:25.880Z,100639.81
2023-04-08T06:10:02.290Z,100633.53
2023-04-08T06:10:38.171Z,100645.00
2023-04-08T06:11:14.139Z,100636.00
2023-04-08T06:11:49.918Z,100647.47
2023-04-08T06:12:26.339Z,100643.91
2023-04-08T06:13:01.587Z,100648.00
2023-04-08T06:13:37.511Z,100648.00
2023-04-08T06:14:12.454Z,100650.19
2023-04-08T06:14:48.876Z,100648.81
2023-04-08T06:15:25.517Z,100648.00
2023-04-08T06:16:01.012Z,100647.44
2023-04-08T06:16:37.347Z,100646.34
2023-04-08T06:17:13.241Z,100652.91
2023-04-08T06:17:49.352Z,100643.63
2023-04-08T06:18:26.298Z,100650.44
2023-04-08T06:19:02.078Z,100655.34
2023-04-08T06:19:37.549Z,100656.19
2023-04-08T06:20:13.114Z,100657.25
2023-04-08T06:20:49.383Z,100655.63
2023-04-08T06:21:25.534Z,100660.00
2023-04-08T06:22:01.509Z,100666.25
2023-04-08T06:22:37.419Z,100666.00
2023-04-08T06:23:13.443Z,100667.63
2023-04-08T06:23:49.120Z,100671.44
2023-04-08T06:24:25.040Z,100671.44
2023-04-08T06:25:00.527Z,100669.00
2023-04-08T06:25:36.609Z,100665.16
2023-04-08T06:26:12.814Z,100669.00
2023-04-08T06:26:48.264Z,100673.34
2023-04-08T06:27:24.780Z,100667.09
2023-04-08T06:28:00.428Z,100666.00
2023-04-08T06:28:35.589Z,100669.81
2023-04-08T06:29:11.784Z,100675.00
2023-04-08T06:29:47.914Z,100671.19
2023-04-08T06:30:23.592Z,100672.25
2023-04-08T06:31:00.054Z,100671.97
2023-04-08T06:31:36.713Z,100673.63
2023-04-08T06:32:12.771Z,100671.97
2023-04-08T06:32:48.459Z,100670.91
2023-04-08T06:33:23.844Z,100670.34
2023-04-08T06:34:00.325Z,100671.72
2023-04-08T06:34:35.789Z,100669.25
2023-04-08T06:35:11.750Z,100673.06
2023-04-08T06:35:47.869Z,100681.81
2023-04-08T06:36:24.142Z,100680.72
2023-04-08T06:36:59.633Z,100673.88
2023-04-08T06:37:35.413Z,100674.72
2023-04-08T06:38:08.615Z,100672.25
2023-04-08T06:38:41.712Z,100671.44
2023-04-08T06:39:17.693Z,100671.44
2023-04-08T06:39:53.562Z,100678.25
2023-04-08T06:40:29.934Z,100672.81
2023-04-08T06:41:06.013Z,100670.34
2023-04-08T06:41:41.487Z,100674.16
2023-04-08T06:42:17.984Z,100670.91
2023-04-08T06:42:53.963Z,100671.72
2023-04-08T06:43:29.448Z,100670.06
2023-04-08T06:44:05.807Z,100674.72
2023-04-08T06:44:41.698Z,100673.34
2023-04-08T06:45:17.192Z,100670.06
2023-04-08T06:45:53.871Z,100669.00
2023-04-08T06:46:29.621Z,100667.09
2023-04-08T06:47:05.662Z,100672.53
2023-04-08T06:47:41.288Z,100671.19
2023-04-08T06:48:16.732Z,100677.44
2023-04-08T06:48:52.598Z,100672.00
2023-04-08T06:49:28.689Z,100679.63